sensor_id;sensor_type;location;lat;lon;timestamp;temperature;humidity
72602;DHT22;60644;55.858;37.390;2022-09-09T00:00:24;8.03;66.00
72602;DHT22;60644;55.858;37.390;2022-09-09T00:03:16;8.06;66.04
72602;DHT22;60644;55.858;37.390;2022-09-09T00:08:20;8.07;65.30
72602;DHT22;60644;55.858;37.390;2022-09-09T00:10:57;8.03;65.04
72602;DHT22;60644;55.858;37.390;2022-09-09T00:13:27;8.00;65.71
72602;DHT22;60644;55.858;37.390;2022-09-09T00:15:59;8.00;65.08
72602;DHT22;60644;55.858;37.390;2022-09-09T00:21:13;8.01;65.53
72602;DHT22;60644;55.858;37.390;2022-09-09T00:23:48;8.07;65.72
72602;DHT22;60644;55.858;37.390;2022-09-09T00:26:32;8.11;65.70
72602;DHT22;60644;55.858;37.390;2022-09-09T00:31:44;8.13;65.41
72602;DHT22;60644;55.858;37.390;2022-09-09T00:34:14;8.05;65.14
72602;DHT22;60644;55.858;37.390;2022-09-09T00:36:42;7.96;66.09
72602;DHT22;60644;55.858;37.390;2022-09-09T00:39:17;7.92;66.68
72602;DHT22;60644;55.858;37.390;2022-09-09T00:44:33;7.91;65.23
72602;DHT22;60644;55.858;37.390;2022-09-09T00:57:52;7.82;66.43
72602;DHT22;60644;55.858;37.390;2022-09-09T01:05:33;7.82;67.01
72602;DHT22;60644;55.858;37.390;2022-09-09T01:08:03;7.82;66.23
72602;DHT22;60644;55.858;37.390;2022-09-09T01:10:41;7.85;65.93
72602;DHT22;60644;55.858;37.390;2022-09-09T01:13:20;7.82;66.86
72602;DHT22;60644;55.858;37.390;2022-09-09T01:15:48;7.79;66.52
72602;DHT22;60644;55.858;37.390;2022-09-09T01:18:17;7.77;66.29
72602;DHT22;60644;55.858;37.390;2022-09-09T01:20:55;7.76;67.08
72602;DHT22;60644;55.858;37.390;2022-09-09T01:26:37;7.74;66.12
72602;DHT22;60644;55.858;37.390;2022-09-09T01:29:17;7.73;65.69
72602;DHT22;60644;55.858;37.390;2022-09-09T01:34:25;7.70;65.65
72602;DHT22;60644;55.858;37.390;2022-09-09T01:37:12;7.65;67.24
72602;DHT22;60644;55.858;37.390;2022-09-09T01:39:41;7.62;66.91
72602;DHT22;60644;55.858;37.390;2022-09-09T01:42:13;7.64;66.83
72602;DHT22;60644;55.858;37.390;2022-09-09T01:44:41;7.65;66.63
72602;DHT22;60644;55.858;37.390;2022-09-09T01:47:08;7.67;66.62
72602;DHT22;60644;55.858;37.390;2022-09-09T01:49:41;7.71;66.36
72602;DHT22;60644;55.858;37.390;2022-09-09T01:52:16;7.69;67.03
72602;DHT22;60644;55.858;37.390;2022-09-09T01:54:42;7.65;68.26
72602;DHT22;60644;55.858;37.390;2022-09-09T01:57:46;7.64;67.55
72602;DHT22;60644;55.858;37.390;2022-09-09T02:00:14;7.60;68.44
72602;DHT22;60644;55.858;37.390;2022-09-09T02:05:43;7.62;67.82
72602;DHT22;60644;55.858;37.390;2022-09-09T02:08:26;7.61;68.02
72602;DHT22;60644;55.858;37.390;2022-09-09T02:13:44;7.58;68.42
72602;DHT22;60644;55.858;37.390;2022-09-09T02:16:33;7.57;68.38
72602;DHT22;60644;55.858;37.390;2022-09-09T02:19:22;7.59;68.71
72602;DHT22;60644;55.858;37.390;2022-09-09T02:22:07;7.63;68.10
72602;DHT22;60644;55.858;37.390;2022-09-09T02:24:36;7.64;68.10
72602;DHT22;60644;55.858;37.390;2022-09-09T02:27:13;7.60;68.20
72602;DHT22;60644;55.858;37.390;2022-09-09T02:29:42;7.58;68.52
72602;DHT22;60644;55.858;37.390;2022-09-09T02:32:14;7.55;68.42
72602;DHT22;60644;55.858;37.390;2022-09-09T02:34:43;7.50;68.52
72602;DHT22;60644;55.858;37.390;2022-09-09T02:37:11;7.52;68.21
72602;DHT22;60644;55.858;37.390;2022-09-09T02:39:42;7.50;68.44
72602;DHT22;60644;55.858;37.390;2022-09-09T02:42:13;7.47;68.65
72602;DHT22;60644;55.858;37.390;2022-09-09T02:44:42;7.40;68.98
72602;DHT22;60644;55.858;37.390;2022-09-09T02:47:33;7.35;68.93
72602;DHT22;60644;55.858;37.390;2022-09-09T02:50:25;7.33;68.71
72602;DHT22;60644;55.858;37.390;2022-09-09T02:55:32;7.30;68.75
72602;DHT22;60644;55.858;37.390;2022-09-09T02:58:04;7.30;68.52
72602;DHT22;60644;55.858;37.390;2022-09-09T03:00:34;7.30;68.45
72602;DHT22;60644;55.858;37.390;2022-09-09T03:03:04;7.29;68.42
72602;DHT22;60644;55.858;37.390;2022-09-09T03:05:32;7.30;68.37
72602;DHT22;60644;55.858;37.390;2022-09-09T03:07:58;7.29;68.30
72602;DHT22;60644;55.858;37.390;2022-09-09T03:10:25;7.25;68.35
72602;DHT22;60644;55.858;37.390;2022-09-09T03:12:51;7.22;68.79
72602;DHT22;60644;55.858;37.390;2022-09-09T03:15:18;7.22;68.18
72602;DHT22;60644;55.858;37.390;2022-09-09T03:17:44;7.24;67.92
72602;DHT22;60644;55.858;37.390;2022-09-09T03:20:10;7.25;67.99
72602;DHT22;60644;55.858;37.390;2022-09-09T03:22:37;7.23;68.52
72602;DHT22;60644;55.858;37.390;2022-09-09T03:25:04;7.16;68.32
72602;DHT22;60644;55.858;37.390;2022-09-09T03:27:33;7.13;68.60
72602;DHT22;60644;55.858;37.390;2022-09-09T03:29:59;7.09;68.52
72602;DHT22;60644;55.858;37.390;2022-09-09T03:32:30;7.02;68.81
72602;DHT22;60644;55.858;37.390;2022-09-09T03:34:57;6.98;69.30
72602;DHT22;60644;55.858;37.390;2022-09-09T03:37:23;6.93;68.95
72602;DHT22;60644;55.858;37.390;2022-09-09T03:39:50;6.93;68.97
72602;DHT22;60644;55.858;37.390;2022-09-09T03:42:17;6.90;69.38
72602;DHT22;60644;55.858;37.390;2022-09-09T03:44:49;6.89;68.83
72602;DHT22;60644;55.858;37.390;2022-09-09T03:47:20;6.95;68.82
72602;DHT22;60644;55.858;37.390;2022-09-09T03:49:54;6.97;68.77
72602;DHT22;60644;55.858;37.390;2022-09-09T03:52:20;6.96;68.87
72602;DHT22;60644;55.858;37.390;2022-09-09T03:54:48;6.99;68.81
72602;DHT22;60644;55.858;37.390;2022-09-09T03:57:14;6.99;68.68
72602;DHT22;60644;55.858;37.390;2022-09-09T03:59:43;7.00;68.61
72602;DHT22;60644;55.858;37.390;2022-09-09T04:02:09;6.95;69.55
72602;DHT22;60644;55.858;37.390;2022-09-09T04:04:35;6.90;69.06
72602;DHT22;60644;55.858;37.390;2022-09-09T04:07:02;6.91;68.91
72602;DHT22;60644;55.858;37.390;2022-09-09T04:09:28;6.97;68.75
72602;DHT22;60644;55.858;37.390;2022-09-09T04:11:54;6.96;68.77
72602;DHT22;60644;55.858;37.390;2022-09-09T04:14:20;6.96;68.90
72602;DHT22;60644;55.858;37.390;2022-09-09T04:16:47;6.98;68.80
72602;DHT22;60644;55.858;37.390;2022-09-09T04:19:14;7.01;68.62
72602;DHT22;60644;55.858;37.390;2022-09-09T04:21:42;7.04;68.58
72602;DHT22;60644;55.858;37.390;2022-09-09T04:24:09;7.09;68.44
72602;DHT22;60644;55.858;37.390;2022-09-09T04:26:38;7.11;68.52
72602;DHT22;60644;55.858;37.390;2022-09-09T04:29:05;7.09;68.75
72602;DHT22;60644;55.858;37.390;2022-09-09T04:31:33;7.05;69.65
72602;DHT22;60644;55.858;37.390;2022-09-09T04:34:00;6.99;69.36
72602;DHT22;60644;55.858;37.390;2022-09-09T04:36:33;7.05;69.50
72602;DHT22;60644;55.858;37.390;2022-09-09T04:39:03;7.07;69.12
72602;DHT22;60644;55.858;37.390;2022-09-09T04:41:29;7.12;69.52
72602;DHT22;60644;55.858;37.390;2022-09-09T04:43:57;7.08;69.88
72602;DHT22;60644;55.858;37.390;2022-09-09T04:46:23;7.09;69.69
72602;DHT22;60644;55.858;37.390;2022-09-09T04:48:50;7.12;69.57
72602;DHT22;60644;55.858;37.390;2022-09-09T04:51:18;7.18;69.53
72602;DHT22;60644;55.858;37.390;2022-09-09T04:53:47;7.23;69.59
72602;DHT22;60644;55.858;37.390;2022-09-09T04:56:17;7.26;69.39
72602;DHT22;60644;55.858;37.390;2022-09-09T04:58:52;7.34;69.08
72602;DHT22;60644;55.858;37.390;2022-09-09T05:01:22;7.42;68.73
72602;DHT22;60644;55.858;37.390;2022-09-09T05:03:51;7.50;68.71
72602;DHT22;60644;55.858;37.390;2022-09-09T05:06:21;7.55;68.39
72602;DHT22;60644;55.858;37.390;2022-09-09T05:08:51;7.61;68.14
72602;DHT22;60644;55.858;37.390;2022-09-09T05:11:27;7.65;68.01
72602;DHT22;60644;55.858;37.390;2022-09-09T05:13:58;7.72;67.71
72602;DHT22;60644;55.858;37.390;2022-09-09T05:16:24;7.79;67.69
72602;DHT22;60644;55.858;37.390;2022-09-09T05:18:51;7.83;67.84
72602;DHT22;60644;55.858;37.390;2022-09-09T05:21:19;7.86;67.81
72602;DHT22;60644;55.858;37.390;2022-09-09T05:23:45;7.91;68.00
72602;DHT22;60644;55.858;37.390;2022-09-09T05:26:17;7.93;68.20
72602;DHT22;60644;55.858;37.390;2022-09-09T05:28:46;7.97;68.21
72602;DHT22;60644;55.858;37.390;2022-09-09T05:31:13;8.03;67.65
72602;DHT22;60644;55.858;37.390;2022-09-09T05:33:42;8.12;67.52
72602;DHT22;60644;55.858;37.390;2022-09-09T05:36:13;8.19;67.39
72602;DHT22;60644;55.858;37.390;2022-09-09T05:38:41;8.28;67.01
72602;DHT22;60644;55.858;37.390;2022-09-09T05:41:08;8.34;66.72
72602;DHT22;60644;55.858;37.390;2022-09-09T05:43:35;8.38;67.05
72602;DHT22;60644;55.858;37.390;2022-09-09T05:46:05;8.43;66.80
72602;DHT22;60644;55.858;37.390;2022-09-09T05:48:42;8.53;66.68
72602;DHT22;60644;55.858;37.390;2022-09-09T05:51:10;8.60;66.38
72602;DHT22;60644;55.858;37.390;2022-09-09T05:53:42;8.68;66.28
72602;DHT22;60644;55.858;37.390;2022-09-09T05:56:11;8.75;65.95
72602;DHT22;60644;55.858;37.390;2022-09-09T05:58:38;8.83;65.59
72602;DHT22;60644;55.858;37.390;2022-09-09T06:01:09;8.88;65.48
72602;DHT22;60644;55.858;37.390;2022-09-09T06:03:37;8.93;65.35
72602;DHT22;60644;55.858;37.390;2022-09-09T06:06:06;8.98;65.11
72602;DHT22;60644;55.858;37.390;2022-09-09T06:08:37;9.03;64.67
72602;DHT22;60644;55.858;37.390;2022-09-09T06:11:07;9.08;64.54
72602;DHT22;60644;55.858;37.390;2022-09-09T06:13:33;9.12;63.63
72602;DHT22;60644;55.858;37.390;2022-09-09T06:15:59;9.17;63.48
72602;DHT22;60644;55.858;37.390;2022-09-09T06:18:26;9.23;63.68
72602;DHT22;60644;55.858;37.390;2022-09-09T06:21:04;9.24;62.25
72602;DHT22;60644;55.858;37.390;2022-09-09T06:23:31;9.30;62.86
72602;DHT22;60644;55.858;37.390;2022-09-09T06:28:33;9.36;63.24
72602;DHT22;60644;55.858;37.390;2022-09-09T06:31:00;9.35;63.20
72602;DHT22;60644;55.858;37.390;2022-09-09T06:33:35;9.33;61.72
72602;DHT22;60644;55.858;37.390;2022-09-09T06:36:03;9.38;62.45
72602;DHT22;60644;55.858;37.390;2022-09-09T06:38:30;9.41;62.08
72602;DHT22;60644;55.858;37.390;2022-09-09T06:40:58;9.37;60.86
72602;DHT22;60644;55.858;37.390;2022-09-09T06:43:26;9.42;62.48
72602;DHT22;60644;55.858;37.390;2022-09-09T06:45:55;9.45;61.77
72602;DHT22;60644;55.858;37.390;2022-09-09T06:48:22;9.50;61.96
72602;DHT22;60644;55.858;37.390;2022-09-09T06:50:48;9.62;61.53
72602;DHT22;60644;55.858;37.390;2022-09-09T06:53:18;9.74;61.83
72602;DHT22;60644;55.858;37.390;2022-09-09T06:55:45;9.81;61.74
72602;DHT22;60644;55.858;37.390;2022-09-09T06:58:12;9.79;61.50
72602;DHT22;60644;55.858;37.390;2022-09-09T07:00:38;9.78;57.64
72602;DHT22;60644;55.858;37.390;2022-09-09T07:03:04;9.83;59.35
72602;DHT22;60644;55.858;37.390;2022-09-09T07:05:32;9.96;59.61
72602;DHT22;60644;55.858;37.390;2022-09-09T07:07:58;10.10;58.99
72602;DHT22;60644;55.858;37.390;2022-09-09T07:10:25;10.24;58.21
72602;DHT22;60644;55.858;37.390;2022-09-09T07:12:51;10.36;58.91
72602;DHT22;60644;55.858;37.390;2022-09-09T07:15:23;10.52;58.89
72602;DHT22;60644;55.858;37.390;2022-09-09T07:17:49;10.59;55.84
72602;DHT22;60644;55.858;37.390;2022-09-09T07:20:15;10.66;58.45
72602;DHT22;60644;55.858;37.390;2022-09-09T07:22:41;10.69;55.72
72602;DHT22;60644;55.858;37.390;2022-09-09T07:25:08;10.66;57.15
72602;DHT22;60644;55.858;37.390;2022-09-09T07:27:35;10.65;57.02
72602;DHT22;60644;55.858;37.390;2022-09-09T07:30:01;10.62;57.85
72602;DHT22;60644;55.858;37.390;2022-09-09T07:32:29;10.64;57.79
72602;DHT22;60644;55.858;37.390;2022-09-09T07:34:56;10.60;57.34
72602;DHT22;60644;55.858;37.390;2022-09-09T07:37:26;10.69;56.92
72602;DHT22;60644;55.858;37.390;2022-09-09T07:39:52;10.72;56.07
72602;DHT22;60644;55.858;37.390;2022-09-09T07:42:18;10.74;55.57
72602;DHT22;60644;55.858;37.390;2022-09-09T07:44:45;10.83;56.64
72602;DHT22;60644;55.858;37.390;2022-09-09T07:47:13;10.87;54.84
72602;DHT22;60644;55.858;37.390;2022-09-09T07:49:44;10.92;55.94
72602;DHT22;60644;55.858;37.390;2022-09-09T07:52:13;10.97;55.28
72602;DHT22;60644;55.858;37.390;2022-09-09T07:54:42;11.01;57.32
72602;DHT22;60644;55.858;37.390;2022-09-09T07:57:10;11.04;56.02
72602;DHT22;60644;55.858;37.390;2022-09-09T07:59:37;11.08;55.87
72602;DHT22;60644;55.858;37.390;2022-09-09T08:02:03;11.04;54.44
72602;DHT22;60644;55.858;37.390;2022-09-09T08:04:32;11.05;54.72
72602;DHT22;60644;55.858;37.390;2022-09-09T08:06:59;11.03;53.94
72602;DHT22;60644;55.858;37.390;2022-09-09T08:09:28;11.12;58.67
72602;DHT22;60644;55.858;37.390;2022-09-09T08:12:01;11.02;56.71
72602;DHT22;60644;55.858;37.390;2022-09-09T08:14:29;10.94;53.10
72602;DHT22;60644;55.858;37.390;2022-09-09T08:16:56;10.97;54.61
72602;DHT22;60644;55.858;37.390;2022-09-09T08:19:25;11.02;52.99
72602;DHT22;60644;55.858;37.390;2022-09-09T08:21:52;11.11;54.01
72602;DHT22;60644;55.858;37.390;2022-09-09T08:24:18;11.23;56.08
72602;DHT22;60644;55.858;37.390;2022-09-09T08:26:48;11.27;54.87
72602;DHT22;60644;55.858;37.390;2022-09-09T08:29:17;11.23;52.59
72602;DHT22;60644;55.858;37.390;2022-09-09T08:31:50;11.25;51.96
72602;DHT22;60644;55.858;37.390;2022-09-09T08:34:17;11.32;52.83
72602;DHT22;60644;55.858;37.390;2022-09-09T08:36:48;11.40;53.33
72602;DHT22;60644;55.858;37.390;2022-09-09T08:39:17;11.51;53.49
72602;DHT22;60644;55.858;37.390;2022-09-09T08:52:55;11.85;55.95
72602;DHT22;60644;55.858;37.390;2022-09-09T08:57:56;11.85;55.95
72602;DHT22;60644;55.858;37.390;2022-09-09T09:00:31;11.82;53.91
72602;DHT22;60644;55.858;37.390;2022-09-09T09:03:24;11.84;52.65
72602;DHT22;60644;55.858;37.390;2022-09-09T09:09:11;11.97;53.10
72602;DHT22;60644;55.858;37.390;2022-09-09T09:11:49;12.02;51.53
72602;DHT22;60644;55.858;37.390;2022-09-09T09:14:22;11.94;51.07
72602;DHT22;60644;55.858;37.390;2022-09-09T09:17:02;11.91;52.07
72602;DHT22;60644;55.858;37.390;2022-09-09T09:19:31;11.87;51.50
72602;DHT22;60644;55.858;37.390;2022-09-09T09:22:04;11.86;51.09
72602;DHT22;60644;55.858;37.390;2022-09-09T09:25:00;11.83;55.21
72602;DHT22;60644;55.858;37.390;2022-09-09T09:30:20;11.90;51.56
72602;DHT22;60644;55.858;37.390;2022-09-09T09:32:54;11.99;53.62
72602;DHT22;60644;55.858;37.390;2022-09-09T09:35:21;12.06;52.23
72602;DHT22;60644;55.858;37.390;2022-09-09T09:37:47;12.13;54.87
72602;DHT22;60644;55.858;37.390;2022-09-09T09:40:17;12.14;54.09
72602;DHT22;60644;55.858;37.390;2022-09-09T09:43:03;12.14;53.96
72602;DHT22;60644;55.858;37.390;2022-09-09T09:45:41;12.15;54.56
72602;DHT22;60644;55.858;37.390;2022-09-09T09:48:11;12.27;54.07
72602;DHT22;60644;55.858;37.390;2022-09-09T09:51:01;12.27;52.16
72602;DHT22;60644;55.858;37.390;2022-09-09T09:53:31;12.23;52.01
72602;DHT22;60644;55.858;37.390;2022-09-09T09:55:59;12.16;53.68
72602;DHT22;60644;55.858;37.390;2022-09-09T09:58:31;12.15;54.49
72602;DHT22;60644;55.858;37.390;2022-09-09T10:01:01;12.02;54.10
72602;DHT22;60644;55.858;37.390;2022-09-09T10:03:31;11.98;53.84
72602;DHT22;60644;55.858;37.390;2022-09-09T10:06:02;11.93;52.62
72602;DHT22;60644;55.858;37.390;2022-09-09T10:08:28;11.98;46.77
72602;DHT22;60644;55.858;37.390;2022-09-09T10:14:20;12.36;51.72
72602;DHT22;60644;55.858;37.390;2022-09-09T10:20:20;12.62;49.88
72602;DHT22;60644;55.858;37.390;2022-09-09T10:22:52;12.63;49.47
72602;DHT22;60644;55.858;37.390;2022-09-09T10:25:53;12.52;46.65
72602;DHT22;60644;55.858;37.390;2022-09-09T10:36:27;12.52;48.50
72602;DHT22;60644;55.858;37.390;2022-09-09T10:38:59;12.71;48.79
72602;DHT22;60644;55.858;37.390;2022-09-09T10:57:41;12.95;49.97
72602;DHT22;60644;55.858;37.390;2022-09-09T11:00:39;12.95;50.61
72602;DHT22;60644;55.858;37.390;2022-09-09T11:03:09;12.85;46.84
72602;DHT22;60644;55.858;37.390;2022-09-09T11:05:41;12.82;48.11
72602;DHT22;60644;55.858;37.390;2022-09-09T11:08:15;12.81;50.16
72602;DHT22;60644;55.858;37.390;2022-09-09T11:11:03;12.73;47.65
72602;DHT22;60644;55.858;37.390;2022-09-09T11:16:19;12.70;47.58
72602;DHT22;60644;55.858;37.390;2022-09-09T11:18:47;12.72;48.92
72602;DHT22;60644;55.858;37.390;2022-09-09T11:21:26;12.79;47.63
72602;DHT22;60644;55.858;37.390;2022-09-09T11:23:57;12.85;48.00
72602;DHT22;60644;55.858;37.390;2022-09-09T11:26:31;13.76;47.38
72602;DHT22;60644;55.858;37.390;2022-09-09T11:29:04;0.00;0.00
72602;DHT22;60644;55.858;37.390;2022-09-09T11:31:46;0.00;0.00
72602;DHT22;60644;55.858;37.390;2022-09-09T11:34:44;0.00;0.00
72602;DHT22;60644;55.858;37.390;2022-09-09T11:37:40;0.00;0.00
72602;DHT22;60644;55.858;37.390;2022-09-09T11:40:23;0.00;0.00
72602;DHT22;60644;55.858;37.390;2022-09-09T11:42:49;0.00;0.00
72602;DHT22;60644;55.858;37.390;2022-09-09T11:45:27;0.00;0.00
72602;DHT22;60644;55.858;37.390;2022-09-09T11:47:58;0.00;0.00
72602;DHT22;60644;55.858;37.390;2022-09-09T11:52:51;0.00;0.00
72602;DHT22;60644;55.858;37.390;2022-09-09T12:02:59;0.00;0.00
72602;DHT22;60644;55.858;37.390;2022-09-09T12:05:37;0.00;0.00
72602;DHT22;60644;55.858;37.390;2022-09-09T12:08:05;0.00;0.00
72602;DHT22;60644;55.858;37.390;2022-09-09T12:10:38;0.00;0.00
72602;DHT22;60644;55.858;37.390;2022-09-09T12:13:18;0.00;0.00
72602;DHT22;60644;55.858;37.390;2022-09-09T12:15:53;0.00;0.00
72602;DHT22;60644;55.858;37.390;2022-09-09T12:18:33;16.08;38.93
72602;DHT22;60644;55.858;37.390;2022-09-09T12:24:01;16.55;36.87
72602;DHT22;60644;55.858;37.390;2022-09-09T12:26:33;16.39;37.24
72602;DHT22;60644;55.858;37.390;2022-09-09T12:29:26;16.25;36.19
72602;DHT22;60644;55.858;37.390;2022-09-09T12:32:15;15.92;36.47
72602;DHT22;60644;55.858;37.390;2022-09-09T12:34:46;15.59;36.76
72602;DHT22;60644;55.858;37.390;2022-09-09T12:39:48;14.97;41.79
72602;DHT22;60644;55.858;37.390;2022-09-09T12:42:17;14.64;43.21
72602;DHT22;60644;55.858;37.390;2022-09-09T12:45:03;14.38;42.55
72602;DHT22;60644;55.858;37.390;2022-09-09T12:50:27;14.01;45.11
72602;DHT22;60644;55.858;37.390;2022-09-09T12:52:57;13.89;43.45
72602;DHT22;60644;55.858;37.390;2022-09-09T12:55:35;14.08;43.72
72602;DHT22;60644;55.858;37.390;2022-09-09T12:58:04;14.00;43.16
72602;DHT22;60644;55.858;37.390;2022-09-09T13:00:35;13.92;42.07
72602;DHT22;60644;55.858;37.390;2022-09-09T13:03:16;13.82;43.12
72602;DHT22;60644;55.858;37.390;2022-09-09T13:05:42;13.67;42.95
72602;DHT22;60644;55.858;37.390;2022-09-09T13:08:11;13.67;44.00
72602;DHT22;60644;55.858;37.390;2022-09-09T13:10:51;13.78;42.95
72602;DHT22;60644;55.858;37.390;2022-09-09T13:15:57;14.01;42.45
72602;DHT22;60644;55.858;37.390;2022-09-09T13:18:40;13.90;41.85
72602;DHT22;60644;55.858;37.390;2022-09-09T13:21:07;13.88;43.07
72602;DHT22;60644;55.858;37.390;2022-09-09T13:23:35;13.82;42.78
72602;DHT22;60644;55.858;37.390;2022-09-09T13:26:18;13.76;43.80
72602;DHT22;60644;55.858;37.390;2022-09-09T13:28:47;13.75;44.41
72602;DHT22;60644;55.858;37.390;2022-09-09T13:31:24;13.69;43.92
72602;DHT22;60644;55.858;37.390;2022-09-09T13:33:53;13.62;42.39
72602;DHT22;60644;55.858;37.390;2022-09-09T13:36:32;13.53;43.45
72602;DHT22;60644;55.858;37.390;2022-09-09T13:39:00;13.51;44.26
72602;DHT22;60644;55.858;37.390;2022-09-09T13:41:43;13.53;44.56
72602;DHT22;60644;55.858;37.390;2022-09-09T13:44:28;13.47;43.97
72602;DHT22;60644;55.858;37.390;2022-09-09T13:47:06;13.41;43.62
72602;DHT22;60644;55.858;37.390;2022-09-09T13:49:32;13.41;46.09
72602;DHT22;60644;55.858;37.390;2022-09-09T13:52:10;13.36;45.57
72602;DHT22;60644;55.858;37.390;2022-09-09T13:54:37;13.35;47.33
72602;DHT22;60644;55.858;37.390;2022-09-09T13:57:03;13.37;46.99
72602;DHT22;60644;55.858;37.390;2022-09-09T13:59:30;13.32;46.57
72602;DHT22;60644;55.858;37.390;2022-09-09T14:01:57;13.29;45.21
72602;DHT22;60644;55.858;37.390;2022-09-09T14:04:23;13.27;44.93
72602;DHT22;60644;55.858;37.390;2022-09-09T14:06:50;13.29;45.61
72602;DHT22;60644;55.858;37.390;2022-09-09T14:09:17;13.29;46.25
72602;DHT22;60644;55.858;37.390;2022-09-09T14:11:44;13.27;46.50
72602;DHT22;60644;55.858;37.390;2022-09-09T14:14:13;13.27;44.78
72602;DHT22;60644;55.858;37.390;2022-09-09T14:16:39;13.30;45.78
72602;DHT22;60644;55.858;37.390;2022-09-09T14:19:05;13.32;45.78
72602;DHT22;60644;55.858;37.390;2022-09-09T14:21:31;13.45;46.58
72602;DHT22;60644;55.858;37.390;2022-09-09T14:23:57;13.59;45.29
72602;DHT22;60644;55.858;37.390;2022-09-09T14:26:24;13.62;46.84
72602;DHT22;60644;55.858;37.390;2022-09-09T14:28:50;13.54;47.57
72602;DHT22;60644;55.858;37.390;2022-09-09T14:31:17;13.47;45.32
72602;DHT22;60644;55.858;37.390;2022-09-09T14:33:44;13.47;44.77
72602;DHT22;60644;55.858;37.390;2022-09-09T14:36:10;13.46;44.27
72602;DHT22;60644;55.858;37.390;2022-09-09T14:38:38;13.56;44.26
72602;DHT22;60644;55.858;37.390;2022-09-09T14:41:12;13.75;44.63
72602;DHT22;60644;55.858;37.390;2022-09-09T14:43:39;13.86;41.81
72602;DHT22;60644;55.858;37.390;2022-09-09T14:46:10;13.96;42.36
72602;DHT22;60644;55.858;37.390;2022-09-09T14:48:37;14.01;43.87
72602;DHT22;60644;55.858;37.390;2022-09-09T14:51:15;14.08;45.25
72602;DHT22;60644;55.858;37.390;2022-09-09T14:53:43;13.98;44.87
72602;DHT22;60644;55.858;37.390;2022-09-09T14:56:12;13.93;44.55
72602;DHT22;60644;55.858;37.390;2022-09-09T14:58:38;13.94;44.40
72602;DHT22;60644;55.858;37.390;2022-09-09T15:01:15;13.84;44.35
72602;DHT22;60644;55.858;37.390;2022-09-09T15:03:48;13.76;44.37
72602;DHT22;60644;55.858;37.390;2022-09-09T15:06:14;13.65;45.67
72602;DHT22;60644;55.858;37.390;2022-09-09T15:08:42;13.63;42.90
72602;DHT22;60644;55.858;37.390;2022-09-09T15:11:11;13.64;43.69
72602;DHT22;60644;55.858;37.390;2022-09-09T15:13:38;13.67;42.52
72602;DHT22;60644;55.858;37.390;2022-09-09T15:18:31;13.75;45.82
72602;DHT22;60644;55.858;37.390;2022-09-09T15:21:03;13.75;43.82
72602;DHT22;60644;55.858;37.390;2022-09-09T15:23:34;13.73;44.54
72602;DHT22;60644;55.858;37.390;2022-09-09T15:26:01;13.71;43.96
72602;DHT22;60644;55.858;37.390;2022-09-09T15:28:28;13.68;44.18
72602;DHT22;60644;55.858;37.390;2022-09-09T15:30:54;13.67;43.63
72602;DHT22;60644;55.858;37.390;2022-09-09T15:33:21;13.64;44.37
72602;DHT22;60644;55.858;37.390;2022-09-09T15:35:47;13.61;44.70
72602;DHT22;60644;55.858;37.390;2022-09-09T15:38:15;13.54;44.24
72602;DHT22;60644;55.858;37.390;2022-09-09T15:40:42;13.51;45.35
72602;DHT22;60644;55.858;37.390;2022-09-09T15:43:09;13.50;45.41
72602;DHT22;60644;55.858;37.390;2022-09-09T15:45:37;13.48;45.62
72602;DHT22;60644;55.858;37.390;2022-09-09T15:48:06;13.46;45.87
72602;DHT22;60644;55.858;37.390;2022-09-09T15:50:32;13.41;46.19
72602;DHT22;60644;55.858;37.390;2022-09-09T15:52:59;13.33;46.02
72602;DHT22;60644;55.858;37.390;2022-09-09T15:55:25;13.25;46.86
72602;DHT22;60644;55.858;37.390;2022-09-09T15:57:51;13.19;46.41
72602;DHT22;60644;55.858;37.390;2022-09-09T16:00:21;13.11;46.86
72602;DHT22;60644;55.858;37.390;2022-09-09T16:02:48;13.07;47.26
72602;DHT22;60644;55.858;37.390;2022-09-09T16:05:15;13.02;47.68
72602;DHT22;60644;55.858;37.390;2022-09-09T16:07:41;12.94;46.99
72602;DHT22;60644;55.858;37.390;2022-09-09T16:10:09;12.91;47.30
72602;DHT22;60644;55.858;37.390;2022-09-09T16:12:35;12.86;47.28
72602;DHT22;60644;55.858;37.390;2022-09-09T16:15:01;12.81;47.63
72602;DHT22;60644;55.858;37.390;2022-09-09T16:17:30;12.77;47.81
72602;DHT22;60644;55.858;37.390;2022-09-09T16:19:55;12.73;47.84
72602;DHT22;60644;55.858;37.390;2022-09-09T16:22:23;12.70;47.96
72602;DHT22;60644;55.858;37.390;2022-09-09T16:24:50;12.66;47.99
72602;DHT22;60644;55.858;37.390;2022-09-09T16:27:15;12.63;48.09
72602;DHT22;60644;55.858;37.390;2022-09-09T16:29:41;12.53;48.21
72602;DHT22;60644;55.858;37.390;2022-09-09T16:32:07;12.49;48.46
72602;DHT22;60644;55.858;37.390;2022-09-09T16:34:34;12.46;48.83
72602;DHT22;60644;55.858;37.390;2022-09-09T16:37:00;12.43;48.92
72602;DHT22;60644;55.858;37.390;2022-09-09T16:39:27;12.40;49.13
72602;DHT22;60644;55.858;37.390;2022-09-09T16:41:54;12.35;48.50
72602;DHT22;60644;55.858;37.390;2022-09-09T16:44:20;12.31;48.75
72602;DHT22;60644;55.858;37.390;2022-09-09T16:46:47;12.31;48.92
72602;DHT22;60644;55.858;37.390;2022-09-09T16:49:14;12.32;49.02
72602;DHT22;60644;55.858;37.390;2022-09-09T16:51:46;12.32;48.66
72602;DHT22;60644;55.858;37.390;2022-09-09T16:54:13;12.30;49.18
72602;DHT22;60644;55.858;37.390;2022-09-09T16:56:43;12.27;49.66
72602;DHT22;60644;55.858;37.390;2022-09-09T16:59:12;12.20;49.85
72602;DHT22;60644;55.858;37.390;2022-09-09T17:01:40;12.13;50.40
72602;DHT22;60644;55.858;37.390;2022-09-09T17:04:15;12.04;50.50
72602;DHT22;60644;55.858;37.390;2022-09-09T17:06:47;11.99;50.80
72602;DHT22;60644;55.858;37.390;2022-09-09T17:09:16;11.94;51.14
72602;DHT22;60644;55.858;37.390;2022-09-09T17:11:43;11.90;51.48
72602;DHT22;60644;55.858;37.390;2022-09-09T17:14:14;11.86;51.86
72602;DHT22;60644;55.858;37.390;2022-09-09T17:16:41;11.76;52.20
72602;DHT22;60644;55.858;37.390;2022-09-09T17:19:07;11.69;52.31
72602;DHT22;60644;55.858;37.390;2022-09-09T17:21:35;11.68;52.32
72602;DHT22;60644;55.858;37.390;2022-09-09T17:24:01;11.68;52.20
72602;DHT22;60644;55.858;37.390;2022-09-09T17:26:32;11.69;52.24
72602;DHT22;60644;55.858;37.390;2022-09-09T17:29:00;11.70;52.06
72602;DHT22;60644;55.858;37.390;2022-09-09T17:31:28;11.70;51.77
72602;DHT22;60644;55.858;37.390;2022-09-09T17:33:55;11.70;51.69
72602;DHT22;60644;55.858;37.390;2022-09-09T17:36:24;11.67;51.93
72602;DHT22;60644;55.858;37.390;2022-09-09T17:38:51;11.68;51.95
72602;DHT22;60644;55.858;37.390;2022-09-09T17:41:19;11.67;51.96
72602;DHT22;60644;55.858;37.390;2022-09-09T17:43:46;11.70;51.88